Time;durP1;ratioP1;P1;durP2;ratioP2;P2;SDS_P1;SDS_P2;PMS_P1;PMS_P2;Temp;Humidity;BMP_temperature;BMP_pressure;BME280_temperature;BME280_humidity;BME280_pressure;Samples;Min_cycle;Max_cycle;Signal;HPM_P1;HPM_P2
2023/10/21 00:01:05;;;;;;;2.07;1.30;;;;;;;;;;5050047;28;20232;-82
2023/10/21 00:03:32;;;;;;;1.30;1.20;;;;;;;;;;5051115;28;20213;-82
2023/10/21 00:05:59;;;;;;;2.00;1.53;;;;;;;;;;5050872;28;20234;-82
2023/10/21 00:08:26;;;;;;;1.43;1.33;;;;;;;;;;5050576;28;20221;-83
2023/10/21 00:11:03;;;;;;;1.73;1.63;;;;;;;;;;5050235;28;20292;-83
2023/10/21 00:13:30;;;;;;;3.03;1.43;;;;;;;;;;5050928;28;20224;-83
2023/10/21 00:15:57;;;;;;;1.13;1.13;;;;;;;;;;5051258;28;20225;-83
2023/10/21 00:18:25;;;;;;;1.60;1.30;;;;;;;;;;5051493;28;20237;-82
2023/10/21 00:20:53;;;;;;;1.30;1.30;;;;;;;;;;5050480;28;20291;-81
2023/10/21 00:23:21;;;;;;;2.30;1.40;;;;;;;;;;5050851;28;20668;-81
2023/10/21 00:25:48;;;;;;;1.33;1.07;;;;;;;;;;5050839;28;20229;-81
2023/10/21 00:28:16;;;;;;;1.20;1.20;;;;;;;;;;5050764;28;20236;-83
2023/10/21 00:30:45;;;;;;;1.00;1.00;;;;;;;;;;5051872;28;20238;-82
2023/10/21 00:33:13;;;;;;;1.30;1.20;;;;;;;;;;5055306;28;20202;-82
2023/10/21 00:35:40;;;;;;;1.00;1.00;;;;;;;;;;5054380;28;20719;-82
2023/10/21 00:38:07;;;;;;;1.50;1.40;;;;;;;;;;5054883;28;20206;-82
2023/10/21 00:40:34;;;;;;;1.00;1.00;;;;;;;;;;5054043;28;20256;-82
2023/10/21 00:43:01;;;;;;;0.97;0.97;;;;;;;;;;5054841;28;20213;-82
2023/10/21 00:45:29;;;;;;;1.37;1.27;;;;;;;;;;5053986;28;20611;-82
2023/10/21 00:47:56;;;;;;;1.07;1.07;;;;;;;;;;5054474;28;20202;-82
2023/10/21 00:50:24;;;;;;;1.43;1.33;;;;;;;;;;5053216;28;20238;-82
2023/10/21 00:52:51;;;;;;;3.13;1.17;;;;;;;;;;5054105;28;20672;-82
2023/10/21 00:55:18;;;;;;;0.90;0.90;;;;;;;;;;5053680;28;20206;-82
2023/10/21 00:57:45;;;;;;;1.60;1.20;;;;;;;;;;5054260;28;20213;-82
2023/10/21 01:00:12;;;;;;;1.20;1.20;;;;;;;;;;5053456;28;20217;-83
2023/10/21 01:02:42;;;;;;;0.90;0.90;;;;;;;;;;5034453;28;20677;-83
2023/10/21 01:05:09;;;;;;;0.60;0.60;;;;;;;;;;5039361;28;20217;-83
2023/10/21 01:07:37;;;;;;;1.00;1.00;;;;;;;;;;5056200;28;20198;-82
2023/10/21 01:10:04;;;;;;;1.07;0.90;;;;;;;;;;5050500;28;20240;-83
2023/10/21 01:12:31;;;;;;;0.60;0.60;;;;;;;;;;5054083;28;20244;-84
2023/10/21 01:14:58;;;;;;;0.80;0.80;;;;;;;;;;5054184;28;20209;-82
2023/10/21 01:17:25;;;;;;;0.77;0.77;;;;;;;;;;5053563;28;20238;-82
2023/10/21 01:19:54;;;;;;;0.90;0.90;;;;;;;;;;5053948;28;20218;-82
2023/10/21 01:22:21;;;;;;;1.23;0.63;;;;;;;;;;5053455;28;20321;-83
2023/10/21 01:24:49;;;;;;;0.90;0.90;;;;;;;;;;5054261;28;20220;-82
2023/10/21 01:27:17;;;;;;;0.77;0.77;;;;;;;;;;5053277;28;20312;-82
2023/10/21 01:29:44;;;;;;;0.60;0.60;;;;;;;;;;5054192;28;20688;-82
2023/10/21 01:32:11;;;;;;;0.60;0.60;;;;;;;;;;5053710;28;20234;-84
2023/10/21 01:34:38;;;;;;;0.70;0.70;;;;;;;;;;5054449;28;20214;-82
2023/10/21 01:37:05;;;;;;;0.70;0.70;;;;;;;;;;5053738;28;20240;-83
2023/10/21 01:39:33;;;;;;;0.70;0.70;;;;;;;;;;5054769;28;20707;-81
2023/10/21 01:42:01;;;;;;;0.50;0.50;;;;;;;;;;5053269;28;20230;-83
2023/10/21 01:44:28;;;;;;;0.70;0.70;;;;;;;;;;5054611;28;20206;-83
2023/10/21 01:46:55;;;;;;;0.70;0.70;;;;;;;;;;5053893;28;20233;-82
2023/10/21 01:49:22;;;;;;;0.60;0.60;;;;;;;;;;5054179;28;20222;-83
2023/10/21 01:51:49;;;;;;;0.70;0.70;;;;;;;;;;5053526;28;20229;-82
2023/10/21 01:54:16;;;;;;;0.50;0.50;;;;;;;;;;5053757;28;20198;-82
2023/10/21 01:56:45;;;;;;;0.60;0.60;;;;;;;;;;5053199;28;20241;-82
2023/10/21 01:59:14;;;;;;;0.97;0.73;;;;;;;;;;5054241;28;20225;-83
2023/10/21 02:01:41;;;;;;;0.60;0.60;;;;;;;;;;5044693;28;20230;-82
2023/10/21 02:04:08;;;;;;;0.53;0.50;;;;;;;;;;5060811;28;20199;-82
2023/10/21 02:06:35;;;;;;;0.67;0.67;;;;;;;;;;5060889;28;20241;-82
2023/10/21 02:09:02;;;;;;;3.60;0.73;;;;;;;;;;5061575;28;20229;-81
2023/10/21 02:11:29;;;;;;;0.60;0.60;;;;;;;;;;5061396;28;20249;-82
2023/10/21 02:13:57;;;;;;;0.57;0.57;;;;;;;;;;5057967;28;20206;-83
2023/10/21 02:16:25;;;;;;;1.60;0.60;;;;;;;;;;5053104;28;20237;-82
2023/10/21 02:18:52;;;;;;;0.67;0.67;;;;;;;;;;5053434;28;20233;-83
2023/10/21 02:21:20;;;;;;;2.77;0.60;;;;;;;;;;5053417;28;20241;-82
2023/10/21 02:23:47;;;;;;;0.90;0.90;;;;;;;;;;5053330;28;20293;-83
2023/10/21 02:26:14;;;;;;;0.53;0.53;;;;;;;;;;5052955;28;20270;-82
2023/10/21 02:28:41;;;;;;;0.50;0.50;;;;;;;;;;5053182;28;20276;-84
2023/10/21 02:31:09;;;;;;;0.40;0.40;;;;;;;;;;5052490;28;20234;-83
2023/10/21 02:33:37;;;;;;;0.60;0.60;;;;;;;;;;5052977;28;20305;-84
2023/10/21 02:36:04;;;;;;;0.50;0.50;;;;;;;;;;5052291;28;20245;-82
2023/10/21 02:38:31;;;;;;;0.60;0.60;;;;;;;;;;5052413;28;20230;-83
2023/10/21 02:40:58;;;;;;;0.63;0.63;;;;;;;;;;5051785;28;20236;-82
2023/10/21 02:43:26;;;;;;;0.60;0.60;;;;;;;;;;5052530;28;20206;-81
2023/10/21 02:45:53;;;;;;;0.40;0.40;;;;;;;;;;5052071;28;20279;-84
2023/10/21 02:48:21;;;;;;;0.50;0.50;;;;;;;;;;5052461;28;20218;-82
2023/10/21 02:50:49;;;;;;;0.60;0.60;;;;;;;;;;5051520;28;20242;-82
2023/10/21 02:53:16;;;;;;;0.70;0.70;;;;;;;;;;5051703;28;20289;-83
2023/10/21 02:55:43;;;;;;;0.63;0.63;;;;;;;;;;5051843;28;20234;-83
2023/10/21 02:58:10;;;;;;;0.77;0.77;;;;;;;;;;5052407;28;20206;-82
2023/10/21 03:00:37;;;;;;;0.63;0.63;;;;;;;;;;5051993;28;20233;-83
2023/10/21 03:03:05;;;;;;;1.03;0.60;;;;;;;;;;5052433;28;20205;-82
2023/10/21 03:05:32;;;;;;;0.87;0.73;;;;;;;;;;5052034;28;20230;-82
2023/10/21 03:08:00;;;;;;;0.50;0.50;;;;;;;;;;5052389;28;20205;-83
2023/10/21 03:10:27;;;;;;;1.93;0.80;;;;;;;;;;5051553;28;20229;-82
2023/10/21 03:12:54;;;;;;;0.80;0.80;;;;;;;;;;5051902;28;20206;-83
2023/10/21 03:15:21;;;;;;;0.60;0.60;;;;;;;;;;5051658;28;20564;-82
2023/10/21 03:17:48;;;;;;;1.20;0.80;;;;;;;;;;5051881;28;20668;-85
2023/10/21 03:20:15;;;;;;;0.50;0.50;;;;;;;;;;5051472;28;20233;-82
2023/10/21 03:22:43;;;;;;;0.50;0.50;;;;;;;;;;5051725;28;20198;-82
2023/10/21 03:25:12;;;;;;;0.60;0.60;;;;;;;;;;5051400;28;20665;-82
2023/10/21 03:27:39;;;;;;;0.60;0.60;;;;;;;;;;5051853;28;20256;-82
2023/10/21 03:30:07;;;;;;;0.77;0.77;;;;;;;;;;5051127;28;20701;-82
2023/10/21 03:32:34;;;;;;;2.00;0.70;;;;;;;;;;5051780;28;20688;-85
2023/10/21 03:35:01;;;;;;;0.70;0.70;;;;;;;;;;5051926;28;20209;-82
2023/10/21 03:37:28;;;;;;;2.20;0.60;;;;;;;;;;5031315;28;20230;-82
2023/10/21 03:39:55;;;;;;;0.70;0.70;;;;;;;;;;5032126;28;20219;-83
2023/10/21 03:42:24;;;;;;;0.77;0.77;;;;;;;;;;5050333;28;20234;-83
2023/10/21 03:44:51;;;;;;;0.87;0.87;;;;;;;;;;5051260;28;20669;-82
2023/10/21 03:47:18;;;;;;;0.60;0.60;;;;;;;;;;5051107;28;20331;-82
2023/10/21 03:49:45;;;;;;;0.70;0.70;;;;;;;;;;5051732;28;20226;-82
2023/10/21 03:52:13;;;;;;;0.60;0.60;;;;;;;;;;5050897;28;20230;-82
2023/10/21 03:54:40;;;;;;;0.50;0.50;;;;;;;;;;5051487;28;20198;-82
2023/10/21 03:57:07;;;;;;;0.70;0.70;;;;;;;;;;5050841;28;20291;-82
2023/10/21 03:59:36;;;;;;;0.63;0.63;;;;;;;;;;5051629;28;20230;-82
2023/10/21 04:02:03;;;;;;;0.70;0.70;;;;;;;;;;5050684;28;20230;-82
2023/10/21 04:04:30;;;;;;;0.60;0.60;;;;;;;;;;5051411;28;20730;-82
2023/10/21 04:06:57;;;;;;;0.50;0.50;;;;;;;;;;5051085;28;20233;-82
2023/10/21 04:09:25;;;;;;;0.77;0.77;;;;;;;;;;5051374;28;20839;-82
2023/10/21 04:11:52;;;;;;;0.60;0.60;;;;;;;;;;5050440;28;20353;-82
2023/10/21 04:14:19;;;;;;;0.73;0.73;;;;;;;;;;5051662;28;20202;-83
2023/10/21 04:16:49;;;;;;;1.07;0.73;;;;;;;;;;5050966;28;20241;-82
2023/10/21 04:19:16;;;;;;;0.87;0.67;;;;;;;;;;5051533;28;20257;-82
2023/10/21 04:21:44;;;;;;;0.60;0.60;;;;;;;;;;5051454;28;20241;-82
2023/10/21 04:24:11;;;;;;;0.70;0.70;;;;;;;;;;5052266;28;20202;-82
2023/10/21 04:26:38;;;;;;;0.53;0.53;;;;;;;;;;5051498;28;20236;-82
2023/10/21 04:29:05;;;;;;;0.60;0.60;;;;;;;;;;5052020;28;20225;-81
2023/10/21 04:31:34;;;;;;;0.60;0.60;;;;;;;;;;5051213;28;20296;-83
2023/10/21 04:34:03;;;;;;;0.60;0.60;;;;;;;;;;5051765;28;20669;-81
2023/10/21 04:36:30;;;;;;;0.70;0.70;;;;;;;;;;5051136;28;20233;-82
2023/10/21 04:38:57;;;;;;;0.80;0.80;;;;;;;;;;5051511;28;20229;-82
2023/10/21 04:41:24;;;;;;;0.50;0.50;;;;;;;;;;5051253;28;20743;-82
2023/10/21 04:43:51;;;;;;;0.60;0.60;;;;;;;;;;5051339;28;20198;-81
2023/10/21 04:46:18;;;;;;;0.60;0.60;;;;;;;;;;5050863;28;20234;-81
2023/10/21 04:48:45;;;;;;;0.97;0.63;;;;;;;;;;5051070;28;20285;-82
2023/10/21 04:51:14;;;;;;;0.60;0.60;;;;;;;;;;5050865;28;20238;-81
2023/10/21 04:53:41;;;;;;;0.77;0.77;;;;;;;;;;5051778;28;20213;-82
2023/10/21 04:56:08;;;;;;;0.70;0.70;;;;;;;;;;5051012;28;20693;-81
2023/10/21 04:58:35;;;;;;;0.70;0.70;;;;;;;;;;5050904;28;20731;-82
2023/10/21 05:01:02;;;;;;;3.63;0.70;;;;;;;;;;5050594;28;20229;-82
2023/10/21 05:03:29;;;;;;;0.93;0.90;;;;;;;;;;5051159;28;20202;-81
2023/10/21 05:05:56;;;;;;;0.83;0.83;;;;;;;;;;5050420;28;20226;-81
2023/10/21 05:08:25;;;;;;;0.80;0.80;;;;;;;;;;5046825;28;20237;-82
2023/10/21 05:10:52;;;;;;;3.07;0.90;;;;;;;;;;5050377;28;20222;-82
2023/10/21 05:13:19;;;;;;;0.90;0.90;;;;;;;;;;5051235;28;20202;-81
2023/10/21 05:15:46;;;;;;;1.23;1.00;;;;;;;;;;5050845;28;20232;-81
2023/10/21 05:18:13;;;;;;;0.77;0.77;;;;;;;;;;5054772;28;20201;-82
2023/10/21 05:20:40;;;;;;;0.60;0.60;;;;;;;;;;5055271;28;20234;-81
2023/10/21 05:23:07;;;;;;;1.73;0.70;;;;;;;;;;5054485;28;20577;-81
2023/10/21 05:25:36;;;;;;;0.87;0.87;;;;;;;;;;5054450;28;20257;-81
2023/10/21 05:28:03;;;;;;;1.60;0.90;;;;;;;;;;5054769;28;20232;-82
2023/10/21 05:30:30;;;;;;;1.80;0.90;;;;;;;;;;5054184;28;20712;-84
2023/10/21 05:32:57;;;;;;;0.80;0.80;;;;;;;;;;5054683;28;20668;-82
2023/10/21 05:35:24;;;;;;;0.70;0.70;;;;;;;;;;5054058;28;20240;-83
2023/10/21 05:37:51;;;;;;;0.70;0.70;;;;;;;;;;5053974;28;20581;-82
2023/10/21 05:40:18;;;;;;;0.63;0.63;;;;;;;;;;5053171;28;20733;-83
2023/10/21 05:42:47;;;;;;;0.80;0.80;;;;;;;;;;5053370;28;20214;-84
2023/10/21 05:45:14;;;;;;;0.80;0.80;;;;;;;;;;5053139;28;20198;-83
2023/10/21 05:47:41;;;;;;;0.60;0.60;;;;;;;;;;5053331;28;20205;-82
2023/10/21 05:50:09;;;;;;;0.60;0.60;;;;;;;;;;5052666;28;20218;-83
2023/10/21 05:52:36;;;;;;;0.70;0.70;;;;;;;;;;5053419;28;20708;-82
2023/10/21 05:55:04;;;;;;;1.10;1.10;;;;;;;;;;5052663;28;20208;-82
2023/10/21 05:57:31;;;;;;;1.00;0.97;;;;;;;;;;5053228;28;20286;-82
2023/10/21 06:00:00;;;;;;;1.00;0.90;;;;;;;;;;5053361;28;20221;-82
2023/10/21 06:02:27;;;;;;;1.13;0.90;;;;;;;;;;5052333;28;20226;-82
2023/10/21 06:04:54;;;;;;;0.80;0.80;;;;;;;;;;5052983;28;20301;-82
2023/10/21 06:07:21;;;;;;;0.70;0.70;;;;;;;;;;5052840;28;20234;-83
2023/10/21 06:09:48;;;;;;;0.80;0.80;;;;;;;;;;5052923;28;20332;-83
2023/10/21 06:12:15;;;;;;;0.70;0.70;;;;;;;;;;5051842;28;20245;-82
2023/10/21 06:14:42;;;;;;;0.60;0.60;;;;;;;;;;5052971;28;20202;-83
2023/10/21 06:17:11;;;;;;;0.87;0.80;;;;;;;;;;5052465;28;20734;-83
2023/10/21 06:19:39;;;;;;;0.60;0.60;;;;;;;;;;5052592;28;20573;-83
2023/10/21 06:22:06;;;;;;;0.77;0.77;;;;;;;;;;5052308;28;20229;-83
2023/10/21 06:24:33;;;;;;;0.80;0.80;;;;;;;;;;5053028;28;20202;-83
2023/10/21 06:27:01;;;;;;;0.80;0.80;;;;;;;;;;5052486;28;20230;-83
2023/10/21 06:29:28;;;;;;;0.90;0.90;;;;;;;;;;5051479;28;20225;-83
2023/10/21 06:31:55;;;;;;;1.57;0.87;;;;;;;;;;5051750;28;20313;-83
2023/10/21 06:34:23;;;;;;;0.70;0.70;;;;;;;;;;5052369;28;20205;-83
2023/10/21 06:36:50;;;;;;;0.77;0.77;;;;;;;;;;5063074;28;20222;-84
2023/10/21 06:39:18;;;;;;;1.03;0.73;;;;;;;;;;5052422;28;20607;-84
2023/10/21 06:41:45;;;;;;;0.60;0.60;;;;;;;;;;5046974;28;20222;-83
2023/10/21 06:44:15;;;;;;;0.70;0.70;;;;;;;;;;5052143;28;20203;-83
2023/10/21 06:46:42;;;;;;;1.00;1.00;;;;;;;;;;5052048;28;20250;-84
2023/10/21 06:49:10;;;;;;;0.80;0.80;;;;;;;;;;5052588;28;20214;-84
2023/10/21 06:51:39;;;;;;;1.40;1.00;;;;;;;;;;5051959;28;20229;-84
2023/10/21 06:54:06;;;;;;;0.77;0.77;;;;;;;;;;5051907;28;20852;-84
2023/10/21 06:56:33;;;;;;;0.60;0.60;;;;;;;;;;5051503;28;20241;-83
2023/10/21 06:59:01;;;;;;;0.60;0.60;;;;;;;;;;5052800;28;20731;-84
2023/10/21 07:01:28;;;;;;;1.07;0.73;;;;;;;;;;5051606;28;20233;-85
2023/10/21 07:03:55;;;;;;;0.60;0.60;;;;;;;;;;5052539;28;20224;-83
2023/10/21 07:06:22;;;;;;;0.70;0.70;;;;;;;;;;5052132;28;20240;-87
2023/10/21 07:08:51;;;;;;;0.70;0.70;;;;;;;;;;5052320;28;20685;-84
2023/10/21 07:11:18;;;;;;;0.70;0.70;;;;;;;;;;5049466;28;20316;-83
2023/10/21 07:13:46;;;;;;;0.80;0.80;;;;;;;;;;5052567;28;20213;-85
2023/10/21 07:16:13;;;;;;;0.67;0.67;;;;;;;;;;5051622;28;20226;-83
2023/10/21 07:18:41;;;;;;;1.13;1.10;;;;;;;;;;5051847;28;20222;-84
2023/10/21 07:21:09;;;;;;;0.60;0.60;;;;;;;;;;5051073;28;20230;-84
2023/10/21 07:23:36;;;;;;;0.70;0.70;;;;;;;;;;5051740;28;20206;-84
2023/10/21 07:26:05;;;;;;;0.70;0.70;;;;;;;;;;5051501;28;20230;-84
2023/10/21 07:28:33;;;;;;;1.00;1.00;;;;;;;;;;5051379;28;20862;-84
2023/10/21 07:31:00;;;;;;;1.00;1.00;;;;;;;;;;5050892;28;20234;-85
2023/10/21 07:33:27;;;;;;;0.80;0.80;;;;;;;;;;5051240;28;20202;-85
2023/10/21 07:35:55;;;;;;;0.67;0.67;;;;;;;;;;5050799;28;20256;-85
2023/10/21 07:38:22;;;;;;;0.87;0.87;;;;;;;;;;5051373;28;20234;-84
2023/10/21 07:40:50;;;;;;;0.73;0.73;;;;;;;;;;5049975;28;20233;-84
2023/10/21 07:43:18;;;;;;;1.10;1.00;;;;;;;;;;5050580;28;20206;-83
2023/10/21 07:45:46;;;;;;;0.83;0.83;;;;;;;;;;5050665;28;20229;-83
2023/10/21 07:48:13;;;;;;;0.60;0.60;;;;;;;;;;5047434;28;20804;-83
2023/10/21 07:50:40;;;;;;;0.70;0.70;;;;;;;;;;5050595;28;20234;-83
2023/10/21 07:53:07;;;;;;;0.80;0.80;;;;;;;;;;5051105;28;20269;-85
2023/10/21 07:55:34;;;;;;;0.83;0.80;;;;;;;;;;5050465;28;20226;-84
2023/10/21 07:58:01;;;;;;;0.60;0.60;;;;;;;;;;5051294;28;20289;-84
2023/10/21 08:00:30;;;;;;;0.90;0.90;;;;;;;;;;5050564;28;20222;-85
2023/10/21 08:02:58;;;;;;;0.87;0.87;;;;;;;;;;5048676;28;20703;-85
2023/10/21 08:05:27;;;;;;;0.80;0.80;;;;;;;;;;5050927;28;20245;-85
2023/10/21 08:07:55;;;;;;;1.13;1.03;;;;;;;;;;5051506;28;20214;-85
2023/10/21 08:10:23;;;;;;;0.70;0.70;;;;;;;;;;5050917;28;20241;-86
2023/10/21 08:12:50;;;;;;;1.07;0.87;;;;;;;;;;5051437;28;20738;-85
2023/10/21 08:15:17;;;;;;;0.70;0.70;;;;;;;;;;5051689;28;20221;-88
2023/10/21 08:17:46;;;;;;;0.80;0.80;;;;;;;;;;5051965;28;20603;-85
2023/10/21 08:20:13;;;;;;;0.80;0.80;;;;;;;;;;5048316;28;20225;-85
2023/10/21 08:22:40;;;;;;;0.70;0.70;;;;;;;;;;5051196;28;20206;-86
2023/10/21 08:25:08;;;;;;;2.17;0.87;;;;;;;;;;5050873;28;20214;-85
2023/10/21 08:27:36;;;;;;;1.03;0.80;;;;;;;;;;5051056;28;20198;-85
2023/10/21 08:30:03;;;;;;;2.37;1.07;;;;;;;;;;5050969;28;20252;-86
2023/10/21 08:32:30;;;;;;;0.70;0.70;;;;;;;;;;5050647;28;20314;-82
2023/10/21 08:34:59;;;;;;;0.60;0.60;;;;;;;;;;5050360;28;20205;-83
2023/10/21 08:37:26;;;;;;;0.80;0.80;;;;;;;;;;5050158;28;20236;-83
2023/10/21 08:39:53;;;;;;;3.70;0.97;;;;;;;;;;5050595;28;20222;-85
2023/10/21 08:42:20;;;;;;;0.80;0.80;;;;;;;;;;5050007;28;20750;-83
2023/10/21 08:44:48;;;;;;;0.90;0.90;;;;;;;;;;5050650;28;20605;-84
2023/10/21 08:47:16;;;;;;;0.90;0.90;;;;;;;;;;5044793;28;20233;-85
2023/10/21 08:49:45;;;;;;;0.70;0.70;;;;;;;;;;5046147;28;20229;-83
2023/10/21 08:52:14;;;;;;;0.60;0.60;;;;;;;;;;5052095;28;20249;-84
2023/10/21 08:54:43;;;;;;;0.70;0.63;;;;;;;;;;5054672;28;20210;-84
2023/10/21 08:57:10;;;;;;;2.60;1.07;;;;;;;;;;5054221;28;20287;-85
2023/10/21 08:59:37;;;;;;;3.40;1.13;;;;;;;;;;5054520;28;20222;-85
2023/10/21 09:02:06;;;;;;;0.50;0.50;;;;;;;;;;5053982;28;20248;-84
2023/10/21 09:04:33;;;;;;;0.83;0.80;;;;;;;;;;5054311;28;20202;-83
2023/10/21 09:07:01;;;;;;;0.97;0.70;;;;;;;;;;5053997;28;20233;-84
2023/10/21 09:09:30;;;;;;;0.70;0.70;;;;;;;;;;5054260;28;20590;-84
2023/10/21 09:12:04;;;;;;;0.87;0.87;;;;;;;;;;5033806;28;20591;-84
2023/10/21 09:14:32;;;;;;;0.97;0.90;;;;;;;;;;5034620;28;20207;-84
2023/10/21 09:16:59;;;;;;;0.63;0.63;;;;;;;;;;5033796;28;20254;-86
2023/10/21 09:19:27;;;;;;;0.87;0.87;;;;;;;;;;5044911;28;20218;-83
2023/10/21 09:21:55;;;;;;;1.27;0.90;;;;;;;;;;5052500;28;20261;-83
2023/10/21 09:24:23;;;;;;;0.90;0.87;;;;;;;;;;5053236;28;20208;-82
2023/10/21 09:26:51;;;;;;;2.13;1.07;;;;;;;;;;5053718;28;20238;-83
2023/10/21 09:29:19;;;;;;;0.80;0.70;;;;;;;;;;5054236;28;20254;-83
2023/10/21 09:31:48;;;;;;;1.23;0.97;;;;;;;;;;5052947;28;20724;-83
2023/10/21 09:34:24;;;;;;;1.07;0.90;;;;;;;;;;5053969;28;20206;-83
2023/10/21 09:36:51;;;;;;;0.63;0.60;;;;;;;;;;5053304;28;20233;-82
2023/10/21 09:39:18;;;;;;;2.03;0.73;;;;;;;;;;5053521;28;20720;-82
2023/10/21 09:41:47;;;;;;;1.20;1.10;;;;;;;;;;5053069;28;20230;-82
2023/10/21 09:44:16;;;;;;;1.13;0.90;;;;;;;;;;5053691;28;20198;-84
2023/10/21 09:46:44;;;;;;;1.17;1.07;;;;;;;;;;5053482;28;20238;-83
2023/10/21 09:49:12;;;;;;;0.90;0.90;;;;;;;;;;5053623;28;20762;-83
2023/10/21 09:51:47;;;;;;;2.10;0.90;;;;;;;;;;5053085;28;20590;-83
2023/10/21 09:54:15;;;;;;;0.73;0.73;;;;;;;;;;5053640;28;20216;-83
2023/10/21 09:56:43;;;;;;;0.67;0.60;;;;;;;;;;5052885;28;20234;-84
2023/10/21 09:59:10;;;;;;;1.43;0.73;;;;;;;;;;5049358;28;20229;-83
2023/10/21 10:01:39;;;;;;;1.23;0.97;;;;;;;;;;5052729;28;20604;-84
2023/10/21 10:04:09;;;;;;;0.70;0.70;;;;;;;;;;5053206;28;20244;-83
2023/10/21 10:06:37;;;;;;;3.00;0.90;;;;;;;;;;5052966;28;20241;-84
2023/10/21 10:09:07;;;;;;;1.53;0.77;;;;;;;;;;5053125;28;20230;-84
2023/10/21 10:11:34;;;;;;;1.20;0.70;;;;;;;;;;5052441;28;20229;-83
2023/10/21 10:14:04;;;;;;;1.50;0.90;;;;;;;;;;5052985;28;20232;-82
2023/10/21 10:16:32;;;;;;;0.77;0.77;;;;;;;;;;5052884;28;20229;-81
2023/10/21 10:19:00;;;;;;;0.70;0.70;;;;;;;;;;5052990;28;20325;-85
2023/10/21 10:21:32;;;;;;;1.03;0.93;;;;;;;;;;5052356;28;20611;-82
2023/10/21 10:24:03;;;;;;;1.70;0.87;;;;;;;;;;5052993;28;20290;-82
2023/10/21 10:26:33;;;;;;;0.77;0.60;;;;;;;;;;5052244;28;20238;-82
2023/10/21 10:29:01;;;;;;;0.50;0.50;;;;;;;;;;5052611;28;20253;-82
2023/10/21 10:31:29;;;;;;;0.80;0.70;;;;;;;;;;5051886;28;20719;-84
2023/10/21 10:33:56;;;;;;;0.93;0.60;;;;;;;;;;5053247;28;20214;-83
2023/10/21 10:36:30;;;;;;;0.70;0.63;;;;;;;;;;5052109;28;20234;-86
2023/10/21 10:38:58;;;;;;;4.13;1.03;;;;;;;;;;5052700;28;20302;-83
2023/10/21 10:41:25;;;;;;;1.63;0.80;;;;;;;;;;5052140;28;20230;-83
2023/10/21 10:43:54;;;;;;;0.73;0.60;;;;;;;;;;5052580;28;20206;-83
2023/10/21 10:46:21;;;;;;;1.00;0.90;;;;;;;;;;5051931;28;20638;-84
2023/10/21 10:48:48;;;;;;;0.67;0.60;;;;;;;;;;5052496;28;20601;-84
2023/10/21 10:51:15;;;;;;;1.40;1.07;;;;;;;;;;5051884;28;20245;-83
2023/10/21 10:53:47;;;;;;;0.43;0.43;;;;;;;;;;5052495;28;20225;-82
2023/10/21 10:56:18;;;;;;;1.83;0.90;;;;;;;;;;5052223;28;20236;-82
2023/10/21 10:58:46;;;;;;;1.33;0.60;;;;;;;;;;5052129;28;20252;-82
2023/10/21 11:01:18;;;;;;;0.50;0.50;;;;;;;;;;5051581;28;20288;-83
2023/10/21 11:03:45;;;;;;;0.63;0.63;;;;;;;;;;5052338;28;20584;-83
2023/10/21 11:06:13;;;;;;;1.20;0.73;;;;;;;;;;5051396;28;20234;-83
2023/10/21 11:08:40;;;;;;;0.70;0.60;;;;;;;;;;5052074;28;20260;-82
2023/10/21 11:11:10;;;;;;;1.67;0.60;;;;;;;;;;5051160;28;20232;-83
2023/10/21 11:13:37;;;;;;;1.90;0.80;;;;;;;;;;5051915;28;20228;-85
2023/10/21 11:16:07;;;;;;;1.27;0.57;;;;;;;;;;5051235;28;20236;-83
2023/10/21 11:18:34;;;;;;;0.80;0.80;;;;;;;;;;5051969;28;20225;-82
2023/10/21 11:21:01;;;;;;;3.15;0.80;;;;;;;;;;5050982;28;20233;-82
2023/10/21 11:23:29;;;;;;;1.13;0.80;;;;;;;;;;5051269;28;20267;-83
2023/10/21 11:25:57;;;;;;;0.70;0.70;;;;;;;;;;5051529;28;20237;-84
2023/10/21 11:28:26;;;;;;;3.10;0.77;;;;;;;;;;5047291;28;20234;-88
2023/10/21 11:30:53;;;;;;;3.33;0.88;;;;;;;;;;5051240;28;20256;-87
2023/10/21 11:33:20;;;;;;;1.27;0.65;;;;;;;;;;5051984;28;20229;-89
2023/10/21 11:35:48;;;;;;;0.75;0.47;;;;;;;;;;5050870;28;20241;-86
2023/10/21 11:38:16;;;;;;;1.65;0.88;;;;;;;;;;5051504;28;20221;-85
2023/10/21 11:40:43;;;;;;;1.25;0.50;;;;;;;;;;5051189;28;20320;-85
2023/10/21 11:43:12;;;;;;;1.98;0.65;;;;;;;;;;5051573;28;20205;-85
2023/10/21 11:45:41;;;;;;;1.52;0.77;;;;;;;;;;5050835;28;20712;-85
2023/10/21 11:48:09;;;;;;;0.55;0.55;;;;;;;;;;5051441;28;20212;-84
2023/10/21 11:50:37;;;;;;;0.82;0.63;;;;;;;;;;5050614;28;20644;-85
2023/10/21 11:53:04;;;;;;;2.00;0.90;;;;;;;;;;5051091;28;20249;-84
2023/10/21 11:55:51;;;;;;;1.92;0.50;;;;;;;;;;5050885;28;20233;-86
2023/10/21 11:59:12;;;;;;;0.93;0.57;;;;;;;;;;5066067;28;20201;-85
2023/10/21 12:18:27;;;;;;;1.55;0.90;;;;;;;;;;5071236;28;20208;-86
2023/10/21 12:31:55;;;;;;;1.38;1.13;;;;;;;;;;5073838;28;20351;-85
2023/10/21 12:34:42;;;;;;;0.60;0.60;;;;;;;;;;5075055;28;20229;-85
2023/10/21 12:39:57;;;;;;;1.08;0.82;;;;;;;;;;5072079;28;20923;-85
2023/10/21 12:42:26;;;;;;;2.67;0.70;;;;;;;;;;5074065;28;20228;-85
2023/10/21 12:44:55;;;;;;;0.82;0.68;;;;;;;;;;5074956;28;20197;-85
2023/10/21 12:47:22;;;;;;;2.90;1.40;;;;;;;;;;5074071;28;20260;-86
2023/10/21 12:49:55;;;;;;;3.00;0.93;;;;;;;;;;5074507;28;20762;-85
2023/10/21 12:52:22;;;;;;;4.25;1.30;;;;;;;;;;5074152;28;20229;-85
2023/10/21 12:54:50;;;;;;;1.63;1.30;;;;;;;;;;5074419;28;20700;-86
2023/10/21 12:57:17;;;;;;;1.63;0.80;;;;;;;;;;5074344;28;20236;-85
2023/10/21 12:59:44;;;;;;;0.50;0.50;;;;;;;;;;5074418;28;20229;-86
2023/10/21 13:02:12;;;;;;;0.95;0.77;;;;;;;;;;5074081;28;20237;-86
2023/10/21 13:04:40;;;;;;;0.52;0.52;;;;;;;;;;5074671;28;20205;-87
2023/10/21 13:07:09;;;;;;;1.75;0.82;;;;;;;;;;5074208;28;20655;-86
2023/10/21 13:09:39;;;;;;;0.65;0.60;;;;;;;;;;5074367;28;20228;-85
2023/10/21 13:12:14;;;;;;;1.52;1.00;;;;;;;;;;5073740;28;20236;-86
2023/10/21 13:14:41;;;;;;;1.65;0.80;;;;;;;;;;5074307;28;20233;-87
2023/10/21 13:17:08;;;;;;;0.63;0.57;;;;;;;;;;5073540;28;20291;-85
2023/10/21 13:19:36;;;;;;;1.40;0.88;;;;;;;;;;5074314;28;20229;-88
2023/10/21 13:22:05;;;;;;;1.25;0.75;;;;;;;;;;5073478;28;20283;-87
2023/10/21 13:24:34;;;;;;;1.75;0.77;;;;;;;;;;5074330;28;20618;-85
2023/10/21 13:27:01;;;;;;;1.38;1.05;;;;;;;;;;5073574;28;20627;-86
2023/10/21 13:29:28;;;;;;;1.33;1.00;;;;;;;;;;5074164;28;20225;-85
2023/10/21 13:31:55;;;;;;;2.05;1.30;;;;;;;;;;5073428;28;20237;-86
2023/10/21 13:34:22;;;;;;;2.08;1.13;;;;;;;;;;5073991;28;20225;-86
2023/10/21 13:36:51;;;;;;;0.40;0.40;;;;;;;;;;5073174;28;20253;-87
2023/10/21 13:39:18;;;;;;;0.98;0.93;;;;;;;;;;5073666;28;20808;-86
2023/10/21 13:41:47;;;;;;;1.42;0.90;;;;;;;;;;5073533;28;20237;-86
2023/10/21 13:44:14;;;;;;;1.17;0.85;;;;;;;;;;5074054;28;20228;-85
2023/10/21 13:46:41;;;;;;;0.88;0.77;;;;;;;;;;5073335;28;20233;-85
2023/10/21 13:49:13;;;;;;;0.75;0.52;;;;;;;;;;5073425;28;20220;-85
2023/10/21 13:51:41;;;;;;;0.60;0.60;;;;;;;;;;5073304;28;20233;-85
2023/10/21 13:54:09;;;;;;;4.93;1.00;;;;;;;;;;5073523;28;20232;-85
2023/10/21 13:56:37;;;;;;;1.60;0.70;;;;;;;;;;5073064;28;20330;-86
2023/10/21 13:59:06;;;;;;;1.35;0.80;;;;;;;;;;5073461;28;20229;-85
2023/10/21 14:01:33;;;;;;;0.50;0.50;;;;;;;;;;5072660;28;20609;-86
2023/10/21 14:04:00;;;;;;;1.17;0.68;;;;;;;;;;5073467;28;20205;-86
2023/10/21 14:06:27;;;;;;;1.48;0.75;;;;;;;;;;5072971;28;20241;-86
2023/10/21 14:08:54;;;;;;;2.30;0.75;;;;;;;;;;5073599;28;20237;-84
2023/10/21 14:11:21;;;;;;;1.05;0.80;;;;;;;;;;5072823;28;20233;-86
2023/10/21 14:13:48;;;;;;;1.15;0.63;;;;;;;;;;5073157;28;20699;-86
2023/10/21 14:16:19;;;;;;;0.88;0.80;;;;;;;;;;5072969;28;20280;-86
2023/10/21 14:18:46;;;;;;;2.30;0.93;;;;;;;;;;5072933;28;20644;-85
2023/10/21 14:21:13;;;;;;;4.07;1.30;;;;;;;;;;5072577;28;20239;-86
2023/10/21 14:23:41;;;;;;;2.03;0.73;;;;;;;;;;5073164;28;20663;-87
2023/10/21 14:26:10;;;;;;;3.97;1.48;;;;;;;;;;5072507;28;20282;-86
2023/10/21 14:28:37;;;;;;;2.92;1.10;;;;;;;;;;5073114;28;20226;-86
2023/10/21 14:31:06;;;;;;;0.90;0.63;;;;;;;;;;5072217;28;20703;-86
2023/10/21 14:33:35;;;;;;;1.80;1.20;;;;;;;;;;5073077;28;20225;-88
2023/10/21 14:36:05;;;;;;;0.75;0.75;;;;;;;;;;5072275;28;20233;-86
2023/10/21 14:38:33;;;;;;;1.40;1.08;;;;;;;;;;5073219;28;20229;-87
2023/10/21 14:41:00;;;;;;;1.17;0.75;;;;;;;;;;5072090;28;20233;-86
2023/10/21 14:43:27;;;;;;;2.53;0.80;;;;;;;;;;5072540;28;20205;-87
2023/10/21 14:45:54;;;;;;;2.38;0.77;;;;;;;;;;5072040;28;20599;-86
2023/10/21 14:48:22;;;;;;;1.75;0.82;;;;;;;;;;5071838;28;20229;-85
2023/10/21 14:50:51;;;;;;;2.10;0.68;;;;;;;;;;5071492;28;20237;-85
2023/10/21 14:53:18;;;;;;;1.52;0.82;;;;;;;;;;5072125;28;20228;-85
2023/10/21 14:55:46;;;;;;;1.63;0.60;;;;;;;;;;5073221;28;20229;-85
2023/10/21 14:58:15;;;;;;;1.10;0.70;;;;;;;;;;5072353;28;20213;-89
2023/10/21 15:00:42;;;;;;;2.10;0.75;;;;;;;;;;5072030;28;20233;-84
2023/10/21 15:03:12;;;;;;;1.30;0.60;;;;;;;;;;5072151;28;20209;-84
2023/10/21 15:05:39;;;;;;;0.70;0.70;;;;;;;;;;5071653;28;20260;-85
2023/10/21 15:08:07;;;;;;;1.10;0.75;;;;;;;;;;5071948;28;20220;-84
2023/10/21 15:10:35;;;;;;;3.22;0.80;;;;;;;;;;5071513;28;20714;-84
2023/10/21 15:13:04;;;;;;;0.60;0.57;;;;;;;;;;5071847;28;20205;-84
2023/10/21 15:15:31;;;;;;;2.22;0.85;;;;;;;;;;5071341;28;20240;-85
2023/10/21 15:17:58;;;;;;;0.65;0.65;;;;;;;;;;5071962;28;20213;-84